Spanish Fort, Alabama
Current Conditions -  °F | °C
As of 10:12 AM on Sunday 23 Nov 2014 (Local Time) from KBFM Reporting Station
Light Rain Light Rain  
Wind Chill: 69°   Ceiling: 7000
Heat Index: 69°   Visibility: 9mi
Dew Point: 67°   Wind: 9mph
Humidity: 93%   Direction: 200°SSW
Pressure: 29.75"   Gusts: NA
Location:  30.68°N, 87.88°W
Report Text: KBFM 231612Z 20008KT 9SM -RA FEW050 BKN070 OVC090 21/19 A2975 RMK AO2 LTG DSNT NE RAE1556B04 TSE1557 P0000 T02060194
Loading
Personal Weather Stations






























Interactive Weather Map New forecast layout! Learn more

10-Day Weather Forecast

Advertisements
Track Severe Weather on mobile